To NAV CANADA Home Page Login to a new session Search on AWWS site Feedback and Comments Disclaimer Vers la page française équivalente Tips FAQ What's new on the site To the Forecasts and Observations / NOTAM section To "File a Flight Plan" website Publications and other links Update of the User's profile FIC Telephone Numbers My Weather Data Folder Route Weather Data Regional Weather Data Local Weather Data To the Forecasts and Observations / NOTAM section
Request Generated 05/25/2017 at 01:14:59 UTC . Weather information available at that time is displayed.

METAR/TAF

THUNDER BAY/ON    (show WxCam)

METAR CYQT 250100Z 08005KT 20SM SKC 14/02 A2976 RMK SLP084 DENSITY
ALT 800FT=
METAR CYQT 250000Z 10007KT 20SM SKC 16/00 A2977 RMK SLP086 DENSITY
ALT 1100FT=
METAR CYQT 242300Z 12006KT 20SM FEW030 17/M02 A2977 RMK SC1 SC TR
SLP088 DENSITY ALT 1200FT=

TAF CYQT 241938Z 2420/2508 10010G20KT P6SM SCT040
FM250000 VRB03KT P6SM SKC
RMK NXT FCST BY 250200Z=
Your time UTC time
Weather data provided by Environment Canada and NAV CANADA